createdAt,value
2017-06-22T00:00:31.725Z,28.45
2017-06-22T00:02:56.419Z,28.5
2017-06-22T00:05:21.114Z,28.56
2017-06-22T00:07:37.311Z,28.41
2017-06-22T00:09:53.601Z,28.37
2017-06-22T00:12:09.811Z,28.43
2017-06-22T00:14:34.503Z,28.3
2017-06-22T00:16:36.516Z,28.38
2017-06-22T00:19:01.285Z,28.34
2017-06-22T00:20:37.595Z,28.27
2017-06-22T00:22:39.615Z,28.16
2017-06-22T00:25:04.393Z,28.19
2017-06-22T00:27:29.089Z,28.09
2017-06-22T00:29:53.783Z,28.15
2017-06-22T00:32:18.479Z,28.2
2017-06-22T00:34:34.678Z,28.16
2017-06-22T00:36:59.269Z,27.95
2017-06-22T00:39:23.965Z,27.91
2017-06-22T00:41:48.665Z,27.94
2017-06-22T00:44:13.364Z,27.82
2017-06-22T00:46:29.559Z,27.94
2017-06-22T00:48:40.253Z,27.94
2017-06-22T00:51:04.921Z,27.83
2017-06-22T00:53:12.620Z,27.85
2017-06-22T00:55:37.214Z,27.83
2017-06-22T00:58:01.911Z,27.79
2017-06-22T01:00:26.503Z,27.5
2017-06-22T01:02:51.100Z,27.47
2017-06-22T01:05:07.295Z,27.38
2017-06-22T01:07:31.891Z,27.41
2017-06-22T01:09:33.879Z,27.3
2017-06-22T01:11:58.546Z,27.19
2017-06-22T01:14:09.082Z,27.19
2017-06-22T01:16:33.709Z,26.98
2017-06-22T01:18:58.298Z,26.92
2017-06-22T01:21:22.898Z,27.08
2017-06-22T01:23:38.990Z,26.97
2017-06-22T01:26:03.581Z,27.01
2017-06-22T01:28:28.110Z,26.63
2017-06-22T01:30:52.671Z,26.33
2017-06-22T01:33:17.262Z,26.22
2017-06-22T01:35:33.356Z,26.33
2017-06-22T01:37:57.951Z,26.22
2017-06-22T01:40:14.042Z,26.07
2017-06-22T01:42:38.640Z,25.96
2017-06-22T01:45:03.237Z,26.04
2017-06-22T01:47:27.833Z,26.18
2017-06-22T01:49:43.922Z,26.19
2017-06-22T01:52:08.419Z,26.06
2017-06-22T01:54:33.009Z,26.23
2017-06-22T01:56:57.507Z,26.45
2017-06-22T01:59:22.092Z,26.48
2017-06-22T02:01:46.690Z,26.52
2017-06-22T02:03:48.669Z,26.52
2017-06-22T02:06:13.244Z,26.53
2017-06-22T02:08:37.838Z,26.45
2017-06-22T02:10:39.936Z,26.55
2017-06-22T02:13:04.501Z,26.23
2017-06-22T02:15:29.096Z,26.44
2017-06-22T02:17:53.685Z,26.48
2017-06-22T02:20:18.281Z,26.48
2017-06-22T02:22:42.877Z,26.55
2017-06-22T02:24:50.477Z,26.6
2017-06-22T02:27:15.066Z,26.59
2017-06-22T02:29:39.648Z,26.53
2017-06-22T02:32:04.253Z,26.6
2017-06-22T02:34:06.230Z,26.53
2017-06-22T02:36:30.808Z,26.39
2017-06-22T02:38:55.410Z,26.37
2017-06-22T02:41:19.997Z,26.48
2017-06-22T02:43:44.590Z,26.46
2017-06-22T02:46:09.079Z,26.49
2017-06-22T02:48:16.679Z,26.46
2017-06-22T02:50:41.170Z,26.36
2017-06-22T02:53:05.661Z,26.41
2017-06-22T02:55:30.154Z,26.33
2017-06-22T02:57:54.645Z,26.04
2017-06-22T03:00:05.165Z,26.22
2017-06-22T03:02:29.695Z,26.13
2017-06-22T03:04:45.694Z,25.93
2017-06-22T03:07:01.685Z,26.07
2017-06-22T03:09:26.175Z,26.07
2017-06-22T03:11:51.388Z,26.07
2017-06-22T03:14:15.158Z,26.03
2017-06-22T03:16:39.650Z,26.06
2017-06-22T03:19:04.141Z,26.07
2017-06-22T03:21:28.641Z,25.86
2017-06-22T03:23:53.126Z,25.88
2017-06-22T03:26:17.617Z,25.92
2017-06-22T03:28:42.109Z,25.99
2017-06-22T03:31:06.602Z,26.1
2017-06-22T03:33:08.597Z,26.13
2017-06-22T03:35:33.154Z,26.08
2017-06-22T03:37:57.651Z,26.15
2017-06-22T03:40:22.137Z,26.18
2017-06-22T03:42:46.632Z,26.59
2017-06-22T03:45:11.130Z,26.55
2017-06-22T03:47:35.620Z,26.45
2017-06-22T03:50:00.134Z,26.45
2017-06-22T03:52:16.204Z,26.42
2017-06-22T03:54:32.195Z,26.46
2017-06-22T03:56:56.688Z,26.39
2017-06-22T03:59:21.178Z,26.37
2017-06-22T04:01:45.670Z,26.67
2017-06-22T04:04:10.162Z,26.71
2017-06-22T04:06:34.755Z,26.61
2017-06-22T04:08:59.348Z,26.85
2017-06-22T04:11:23.939Z,26.93
2017-06-22T04:13:48.536Z,26.97
2017-06-22T04:16:04.632Z,26.86
2017-06-22T04:18:29.227Z,26.91
2017-06-22T04:20:53.823Z,27.44
2017-06-22T04:23:18.413Z,29.07
2017-06-22T04:25:43.009Z,30.36
2017-06-22T04:28:07.706Z,30.85
2017-06-22T04:30:32.503Z,32.38
2017-06-22T04:32:57.410Z,33.94
2017-06-22T04:35:08.075Z,34.96
2017-06-22T04:37:24.784Z,35.59
2017-06-22T04:39:50.089Z,37.07
2017-06-22T04:42:06.900Z,37.44
2017-06-22T04:44:23.822Z,38.68
2017-06-22T04:46:26.054Z,39.41
2017-06-22T04:48:43.205Z,39.64
2017-06-22T04:51:09.946Z,40.8
2017-06-22T04:53:35.772Z,41.07
2017-06-22T04:55:54.118Z,41.11
2017-06-22T04:57:47.909Z,41.2
2017-06-22T05:00:13.918Z,41.7
2017-06-22T05:02:40.047Z,42.7
2017-06-22T05:04:57.673Z,44.37
2017-06-22T05:07:00.077Z,44.83
2017-06-22T05:09:09.397Z,46.28
2017-06-22T05:11:35.824Z,46.85
2017-06-22T05:14:02.368Z,47.16
2017-06-22T05:16:04.865Z,47.55
2017-06-22T05:18:31.583Z,47.89
2017-06-22T05:20:34.064Z,48.52
2017-06-22T05:22:36.601Z,49
2017-06-22T05:25:03.485Z,49.76
2017-06-22T05:27:30.430Z,50.17
2017-06-22T05:29:33.005Z,49.98
2017-06-22T05:32:00.057Z,49.86
2017-06-22T05:34:27.110Z,50.64
2017-06-22T05:36:54.265Z,50.12
2017-06-22T05:39:04.211Z,52.12
2017-06-22T05:41:22.864Z,51.85
2017-06-22T05:43:50.230Z,51.4
2017-06-22T05:46:17.586Z,54.03
2017-06-22T05:48:36.347Z,55.18
2017-06-22T05:50:39.065Z,54.22
2017-06-22T05:53:06.591Z,53.74
2017-06-22T05:55:09.282Z,54.62
2017-06-22T05:57:36.935Z,55.24
2017-06-22T06:00:04.601Z,56.44
2017-06-22T06:02:07.436Z,57.06
2017-06-22T06:04:35.251Z,57.84
2017-06-22T06:07:03.123Z,58.01
2017-06-22T06:09:30.998Z,56.48
2017-06-22T06:11:58.866Z,57.34
2017-06-22T06:14:26.736Z,59.27
2017-06-22T06:16:55.728Z,58.5
2017-06-22T06:19:23.711Z,55.24
2017-06-22T06:21:52.705Z,57.57
2017-06-22T06:24:20.779Z,59.15
2017-06-22T06:26:23.634Z,59.69
2017-06-22T06:28:43.137Z,58.67
2017-06-22T06:31:13.363Z,57
2017-06-22T06:33:41.540Z,51.44
2017-06-22T06:36:10.748Z,44.98
2017-06-22T06:38:38.927Z,45.3
2017-06-22T06:41:06.993Z,45.9
2017-06-22T06:43:35.074Z,47.34
2017-06-22T06:45:37.987Z,47.38
2017-06-22T06:48:05.924Z,48.32
2017-06-22T06:50:33.801Z,47.02
2017-06-22T06:53:01.573Z,46.28
2017-06-22T06:55:29.122Z,47.06
2017-06-22T06:57:56.493Z,46.44
2017-06-22T07:00:23.750Z,43.63
2017-06-22T07:02:50.906Z,43.09
2017-06-22T07:05:17.855Z,43.97
2017-06-22T07:07:44.805Z,43.92
2017-06-22T07:10:11.654Z,43.76
2017-06-22T07:12:29.896Z,44.26
2017-06-22T07:14:48.040Z,45.17
2017-06-22T07:17:14.681Z,44.79
2017-06-22T07:19:32.726Z,46.44
2017-06-22T07:21:59.363Z,47.25
2017-06-22T07:24:01.942Z,47.96
2017-06-22T07:26:28.685Z,46.44
2017-06-22T07:28:55.423Z,47.33
2017-06-22T07:31:22.172Z,48.68
2017-06-22T07:33:48.920Z,50.19
2017-06-22T07:36:15.621Z,49.57
2017-06-22T07:38:42.349Z,49.25
2017-06-22T07:41:09.088Z,47.98
2017-06-22T07:43:35.872Z,46.8
2017-06-22T07:46:02.609Z,47.18
2017-06-22T07:48:29.353Z,46.27
2017-06-22T07:50:31.392Z,46.74
2017-06-22T07:52:58.220Z,47.16
2017-06-22T07:55:24.984Z,46.88
2017-06-22T07:57:27.052Z,46.43
2017-06-22T07:59:53.852Z,46.47
2017-06-22T08:02:20.726Z,45.88
2017-06-22T08:04:47.551Z,46.16
2017-06-22T08:07:05.793Z,46.85
2017-06-22T08:09:32.636Z,46.04
2017-06-22T08:11:59.586Z,46.84
2017-06-22T08:14:26.442Z,47.21
2017-06-22T08:16:53.381Z,46.61
2017-06-22T08:19:20.333Z,48.46
2017-06-22T08:21:31.128Z,49.24
2017-06-22T08:23:58.084Z,49.37
2017-06-22T08:26:25.266Z,47.57
2017-06-22T08:28:53.230Z,48.96
2017-06-22T08:32:59.900Z,49.76
2017-06-22T08:35:28.845Z,49.07
2017-06-22T08:37:55.888Z,47.69
2017-06-22T08:40:39.597Z,46.59
2017-06-22T08:43:06.494Z,47.69
2017-06-22T08:47:06.540Z,49.09
2017-06-22T08:49:49.207Z,47.74
2017-06-22T08:52:08.511Z,46.7
2017-06-22T08:54:50.203Z,46.15
2017-06-22T08:57:23.707Z,46.55
2017-06-22T08:59:50.474Z,48.08
2017-06-22T09:02:17.235Z,47.26
2017-06-22T09:04:28.460Z,48.32
2017-06-22T09:06:46.700Z,48.48
2017-06-22T09:09:13.458Z,49.87
2017-06-22T09:11:40.293Z,48.65
2017-06-22T09:14:07.116Z,47.8
2017-06-22T09:16:09.912Z,46.88
2017-06-22T09:18:36.731Z,46.15
2017-06-22T09:21:03.504Z,45.52
2017-06-22T09:23:30.236Z,46.69
2017-06-22T09:25:57.199Z,46.87
2017-06-22T09:28:15.470Z,46.28
2017-06-22T09:30:42.163Z,47.28
2017-06-22T09:33:00.293Z,46.69
2017-06-22T09:35:26.959Z,46.87
2017-06-22T09:37:38.381Z,46.47
2017-06-22T09:40:05.263Z,47.14
2017-06-22T09:42:31.983Z,46.34
2017-06-22T09:44:50.438Z,47.34
2017-06-22T09:47:18.063Z,48.36
2017-06-22T09:49:20.738Z,47.82
2017-06-22T09:51:38.940Z,45.67
2017-06-22T09:54:05.620Z,46.3
2017-06-22T09:56:32.490Z,46.16
2017-06-22T09:58:42.725Z,45.11
2017-06-22T10:01:09.408Z,44.6
2017-06-22T10:05:12.382Z,45.13
2017-06-22T10:07:39.062Z,44.07
2017-06-22T10:10:05.515Z,43.65
2017-06-22T10:12:23.444Z,42.89
2017-06-22T10:14:50.879Z,42.63
2017-06-22T10:17:17.339Z,42.87
2017-06-22T10:19:20.234Z,43.63
2017-06-22T10:21:38.326Z,43.7
2017-06-22T10:24:04.845Z,42.06
2017-06-22T10:26:31.304Z,41.73
2017-06-22T10:28:57.491Z,42.74
2017-06-22T10:31:23.702Z,43.12
2017-06-22T10:33:41.317Z,43.03
2017-06-22T10:36:07.513Z,42.59
2017-06-22T10:38:33.706Z,42.59
2017-06-22T10:40:59.862Z,42.32
2017-06-22T10:43:26.046Z,42.71
2017-06-22T10:45:52.197Z,42.84
2017-06-22T10:48:18.371Z,42.37
2017-06-22T10:50:44.564Z,42.22
2017-06-22T10:53:02.159Z,42.58
2017-06-22T10:55:28.303Z,42.39
2017-06-22T10:57:55.551Z,41.55
2017-06-22T11:00:21.816Z,41.83
2017-06-22T11:02:47.902Z,41.67
2017-06-22T11:05:13.987Z,42.17
2017-06-22T11:07:40.073Z,41.95
2017-06-22T11:10:06.119Z,41.33
2017-06-22T11:12:34.260Z,41.36
2017-06-22T11:15:00.364Z,40.89
2017-06-22T11:17:26.500Z,41.32
2017-06-22T11:19:52.544Z,41.7
2017-06-22T11:22:18.837Z,41.55
2017-06-22T11:24:46.235Z,41.2
2017-06-22T11:27:12.331Z,40.93
2017-06-22T11:29:45.069Z,40.99
2017-06-22T11:32:11.357Z,40.96
2017-06-22T11:34:43.992Z,41.14
2017-06-22T11:37:10.111Z,41.1
2017-06-22T11:39:36.120Z,41.41
2017-06-22T11:42:02.147Z,41.04
2017-06-22T11:44:28.164Z,40.78
2017-06-22T11:46:54.173Z,41.1
2017-06-22T11:49:21.176Z,40.76
2017-06-22T11:51:39.625Z,41.65
2017-06-22T11:53:57.072Z,41.78
2017-06-22T11:56:15.468Z,41.1
2017-06-22T11:58:41.417Z,41.29
2017-06-22T12:01:07.386Z,41.05
2017-06-22T12:03:01.203Z,41.03
2017-06-22T12:05:18.657Z,40.88
2017-06-22T12:07:36.088Z,41.53
2017-06-22T12:10:02.073Z,41
2017-06-22T12:12:19.469Z,41.52
2017-06-22T12:14:36.892Z,41.04
2017-06-22T12:17:03.933Z,40.2
2017-06-22T12:19:29.911Z,39.94
2017-06-22T12:21:47.254Z,39.14
2017-06-22T12:24:04.590Z,40.22
2017-06-22T12:26:30.519Z,39.95
2017-06-22T12:28:56.398Z,39.93
2017-06-22T12:31:22.296Z,40.24
2017-06-22T12:33:48.186Z,40.05
2017-06-22T12:36:14.068Z,39.1
2017-06-22T12:38:39.885Z,39.07
2017-06-22T12:41:05.705Z,39.27
2017-06-22T12:43:31.520Z,38.62
2017-06-22T12:45:57.338Z,38.91
2017-06-22T12:48:23.137Z,38.92
2017-06-22T12:50:48.908Z,38.73
2017-06-22T12:53:14.635Z,38.28
2017-06-22T12:55:33.872Z,38.73
2017-06-22T12:58:00.636Z,38.72
2017-06-22T13:00:27.359Z,38.68
2017-06-22T13:02:44.568Z,38.57
2017-06-22T13:05:10.328Z,38.54
2017-06-22T13:07:36.031Z,38.05
2017-06-22T13:10:01.676Z,37.66
2017-06-22T13:12:28.308Z,37.19
2017-06-22T13:14:47.428Z,37.1
2017-06-22T13:17:13.013Z,37.03
2017-06-22T13:19:38.617Z,36.91
2017-06-22T13:22:04.190Z,37.14
2017-06-22T13:24:31.763Z,36.85
2017-06-22T13:26:58.305Z,36.53
2017-06-22T13:29:24.801Z,36.45
2017-06-22T13:31:50.278Z,36.17
2017-06-22T13:34:01.095Z,36.13
2017-06-22T13:36:27.553Z,36.17
2017-06-22T13:39:08.812Z,36.06
2017-06-22T13:41:34.242Z,35.9
2017-06-22T13:43:59.643Z,35.98
2017-06-22T13:46:26.011Z,36.03
2017-06-22T13:48:44.863Z,35.98
2017-06-22T13:51:10.205Z,35.82
2017-06-22T13:53:21.016Z,35.93
2017-06-22T13:55:47.457Z,35.97
2017-06-22T13:58:04.294Z,35.9
2017-06-22T13:59:57.989Z,35.82
2017-06-22T14:02:14.836Z,35.66
2017-06-22T14:04:31.664Z,35.93
2017-06-22T14:06:42.466Z,36.06
2017-06-22T14:09:08.921Z,36.01
2017-06-22T14:11:34.316Z,35.87
2017-06-22T14:13:59.693Z,35.93
2017-06-22T14:16:25.063Z,35.91
2017-06-22T14:18:50.534Z,35.87
2017-06-22T14:21:16.472Z,35.81
2017-06-22T14:23:42.867Z,35.79
2017-06-22T14:26:08.282Z,35.9
2017-06-22T14:28:35.626Z,35.9
2017-06-22T14:31:01.067Z,36.05
2017-06-22T14:33:27.419Z,36.29
2017-06-22T14:35:52.746Z,36.13
2017-06-22T14:38:20.117Z,36.08
2017-06-22T14:40:47.270Z,36.45
2017-06-22T14:43:30.243Z,36.51
2017-06-22T14:45:56.620Z,36.24
2017-06-22T14:48:23.082Z,36.08
2017-06-22T14:50:48.483Z,36.2
2017-06-22T14:53:14.021Z,36.28
2017-06-22T14:55:39.649Z,36.53
2017-06-22T14:58:05.090Z,36.41
2017-06-22T15:00:33.195Z,36.38
2017-06-22T15:03:00.803Z,36.55
2017-06-22T15:05:26.661Z,37.07
2017-06-22T15:07:51.935Z,36.81
2017-06-22T15:10:17.395Z,37.03
2017-06-22T15:12:43.539Z,37.43
2017-06-22T15:15:09.087Z,37.63
2017-06-22T15:17:35.142Z,37.5
2017-06-22T15:20:00.674Z,37.16
2017-06-22T15:22:26.017Z,37.07
2017-06-22T15:24:51.467Z,36.89
2017-06-22T15:27:17.014Z,36.81
2017-06-22T15:29:42.474Z,37.43
2017-06-22T15:32:08.023Z,37.58
2017-06-22T15:34:33.515Z,37.25
2017-06-22T15:36:50.528Z,37.43
2017-06-22T15:39:15.981Z,37.72
2017-06-22T15:41:41.597Z,37.8
2017-06-22T15:44:07.122Z,37.85
2017-06-22T15:46:32.633Z,38.14
2017-06-22T15:48:58.246Z,38.68
2017-06-22T15:51:23.793Z,38.14
2017-06-22T15:53:00.377Z,38.57
2017-06-22T15:55:26.086Z,38.41
2017-06-22T15:57:51.661Z,38.42
2017-06-22T16:00:17.213Z,38.65
2017-06-22T16:02:28.105Z,38.38
2017-06-22T16:04:53.703Z,38.47
2017-06-22T16:07:11.792Z,37.95
2017-06-22T16:09:28.838Z,38.29
2017-06-22T16:11:54.471Z,38.23
2017-06-22T16:14:20.132Z,38.42
2017-06-22T16:16:45.766Z,37.9
2017-06-22T16:19:11.418Z,37.68
2017-06-22T16:21:36.989Z,37.07
2017-06-22T16:24:02.561Z,36.92
2017-06-22T16:26:28.192Z,36.7
2017-06-22T16:28:54.214Z,36.85
2017-06-22T16:31:20.432Z,36.6
2017-06-22T16:33:45.998Z,36.89
2017-06-22T16:36:11.609Z,36.63
2017-06-22T16:38:38.103Z,36.51
2017-06-22T16:41:03.669Z,36.8
2017-06-22T16:43:20.647Z,37.03
2017-06-22T16:45:46.216Z,36.92
2017-06-22T16:48:03.174Z,36.65
2017-06-22T16:50:13.535Z,36.62
2017-06-22T16:52:39.064Z,36.45
2017-06-22T16:55:04.541Z,36.26
2017-06-22T16:57:29.931Z,36.36
2017-06-22T16:59:55.356Z,36.5
2017-06-22T17:02:20.749Z,36.36
2017-06-22T17:04:46.114Z,36.28
2017-06-22T17:07:11.547Z,36.31
2017-06-22T17:09:28.457Z,36.11
2017-06-22T17:11:45.342Z,36.47
2017-06-22T17:14:10.769Z,36.62
2017-06-22T17:16:36.175Z,36.62
2017-06-22T17:19:01.543Z,36.67
2017-06-22T17:21:26.943Z,36.55
2017-06-22T17:23:52.370Z,36.54
2017-06-22T17:25:45.570Z,36.51
2017-06-22T17:28:10.994Z,36.13
2017-06-22T17:30:36.432Z,36.03
2017-06-22T17:32:53.309Z,36.03
2017-06-22T17:35:18.707Z,35.79
2017-06-22T17:37:20.406Z,35.84
2017-06-22T17:39:45.851Z,35.68
2017-06-22T17:42:11.179Z,35.74
2017-06-22T17:44:36.577Z,35.76
2017-06-22T17:47:01.971Z,35.64
2017-06-22T17:49:27.320Z,35.59
2017-06-22T17:51:52.645Z,35.59
2017-06-22T17:53:54.857Z,35.35
2017-06-22T17:56:20.217Z,35.41
2017-06-22T17:58:45.486Z,35.31
2017-06-22T18:01:10.737Z,34.94
2017-06-22T18:03:36.048Z,34.91
2017-06-22T18:06:01.334Z,34.71
2017-06-22T18:08:26.609Z,34.73
2017-06-22T18:10:51.856Z,34.85
2017-06-22T18:13:17.097Z,34.82
2017-06-22T18:15:42.290Z,34.69
2017-06-22T18:18:07.555Z,34.66
2017-06-22T18:20:32.772Z,34.7
2017-06-22T18:22:58.041Z,34.62
2017-06-22T18:25:23.275Z,34.53
2017-06-22T18:27:48.530Z,34.4
2017-06-22T18:30:05.294Z,34.1
2017-06-22T18:32:30.472Z,33.97
2017-06-22T18:34:56.737Z,34.07
2017-06-22T18:37:21.985Z,34.24
2017-06-22T18:39:47.227Z,33.87
2017-06-22T18:42:12.587Z,34.11
2017-06-22T18:44:38.966Z,34.1
2017-06-22T18:47:04.130Z,33.94
2017-06-22T18:49:29.323Z,33.84
2017-06-22T18:51:54.483Z,33.69
2017-06-22T18:54:19.670Z,33.54
2017-06-22T18:56:44.876Z,33.67
2017-06-22T18:59:10.022Z,33.61
2017-06-22T19:01:35.216Z,33.66
2017-06-22T19:04:00.400Z,33.73
2017-06-22T19:06:25.610Z,33.79
2017-06-22T19:08:33.796Z,33.44
2017-06-22T19:10:50.458Z,33.42
2017-06-22T19:13:15.642Z,33.63
2017-06-22T19:15:32.327Z,33.4
2017-06-22T19:17:59.480Z,33.44
2017-06-22T19:20:24.637Z,33.13
2017-06-22T19:22:49.778Z,33.23
2017-06-22T19:25:14.860Z,33.13
2017-06-22T19:27:41.990Z,33.22
2017-06-22T19:29:58.615Z,33.08
2017-06-22T19:32:10.363Z,32.93
2017-06-22T19:34:21.086Z,32.94
2017-06-22T19:38:22.002Z,33.01
2017-06-22T19:40:38.676Z,32.83
2017-06-22T19:43:03.752Z,32.85
2017-06-22T19:45:05.367Z,32.94
2017-06-22T19:47:30.505Z,32.73
2017-06-22T19:49:55.589Z,32.73
2017-06-22T19:52:12.193Z,32.82
2017-06-22T19:54:38.280Z,32.82
2017-06-22T19:57:03.377Z,32.57
2017-06-22T19:59:19.971Z,32.63
2017-06-22T20:01:36.612Z,32.42
2017-06-22T20:04:01.659Z,32.44
2017-06-22T20:06:26.691Z,32.29
2017-06-22T20:08:28.318Z,32.42
2017-06-22T20:10:55.998Z,32.07
2017-06-22T20:13:31.287Z,31.78
2017-06-22T20:15:56.294Z,31.66
2017-06-22T20:18:12.895Z,31.45
2017-06-22T20:20:38.923Z,31.42
2017-06-22T20:23:03.929Z,30.93
2017-06-22T20:25:28.890Z,31
2017-06-22T20:27:54.902Z,31.04
2017-06-22T20:30:27.643Z,31.18
2017-06-22T20:32:53.669Z,31.14
2017-06-22T20:35:25.579Z,31.04
2017-06-22T20:38:05.706Z,30.88
2017-06-22T20:40:30.799Z,30.91
2017-06-22T20:42:55.804Z,30.81
2017-06-22T20:45:20.806Z,30.85
2017-06-22T20:47:31.508Z,30.69
2017-06-22T20:49:56.580Z,30.62
2017-06-22T20:52:21.589Z,30.62
2017-06-22T20:54:46.610Z,30.56
2017-06-22T20:57:02.988Z,30.76
2017-06-22T20:59:34.854Z,30.73
2017-06-22T21:01:51.362Z,30.62
2017-06-22T21:04:07.865Z,30.56
2017-06-22T21:06:32.869Z,30.54
2017-06-22T21:08:57.874Z,30.62
2017-06-22T21:11:23.797Z,30.71
2017-06-22T21:13:48.801Z,30.56
2017-06-22T21:15:50.928Z,30.61
2017-06-22T21:18:16.891Z,30.59
2017-06-22T21:20:41.896Z,30.55
2017-06-22T21:23:06.800Z,30.61
2017-06-22T21:25:17.455Z,30.59
2017-06-22T21:27:33.966Z,30.44
2017-06-22T21:29:58.869Z,30.44
2017-06-22T21:32:23.777Z,30.48
2017-06-22T21:34:34.472Z,30.49
2017-06-22T21:36:59.445Z,30.44
2017-06-22T21:39:24.340Z,30.24
2017-06-22T21:41:49.243Z,30.06
2017-06-22T21:44:14.152Z,30.24
2017-06-22T21:46:16.237Z,30.08
2017-06-22T21:48:41.111Z,30.18
2017-06-22T21:50:51.800Z,30.17
2017-06-22T21:53:16.786Z,30.11
2017-06-22T21:55:33.187Z,30.14
2017-06-22T21:57:57.985Z,29.96
2017-06-22T22:00:22.888Z,30.03
2017-06-22T22:02:39.288Z,30.08
2017-06-22T22:05:04.189Z,29.8
2017-06-22T22:07:28.987Z,29.83
2017-06-22T22:09:53.787Z,29.77
2017-06-22T22:12:18.584Z,29.47
2017-06-22T22:14:34.891Z,29.59
2017-06-22T22:16:51.186Z,29.52
2017-06-22T22:19:07.483Z,29.58
2017-06-22T22:21:23.784Z,29.65
2017-06-22T22:23:40.087Z,29.67
2017-06-22T22:26:04.826Z,29.62
2017-06-22T22:28:29.690Z,29.5
2017-06-22T22:30:54.481Z,29.46
2017-06-22T22:33:19.278Z,29.49
2017-06-22T22:35:44.182Z,29.25
2017-06-22T22:38:08.979Z,29.15
2017-06-22T22:40:33.780Z,29.28
2017-06-22T22:42:58.581Z,29.5
2017-06-22T22:45:23.481Z,29.4
2017-06-22T22:47:48.280Z,29.42
2017-06-22T22:50:13.076Z,29.32
2017-06-22T22:52:37.880Z,29.5
2017-06-22T22:54:48.503Z,29.42
2017-06-22T22:57:13.342Z,29.42
2017-06-22T22:59:38.133Z,29.28
2017-06-22T23:02:02.935Z,29.31
2017-06-22T23:04:19.238Z,29.5
2017-06-22T23:06:43.936Z,29.37
2017-06-22T23:09:08.632Z,29.28
2017-06-22T23:11:33.433Z,29.16
2017-06-22T23:13:58.230Z,29.25
2017-06-22T23:16:23.029Z,29.24
2017-06-22T23:18:47.833Z,29.16
2017-06-22T23:21:12.625Z,29.05
2017-06-22T23:23:28.928Z,29.27
2017-06-22T23:25:53.728Z,29.18
2017-06-22T23:28:18.521Z,29.13
2017-06-22T23:30:20.717Z,29.2
2017-06-22T23:32:45.588Z,29
2017-06-22T23:35:10.388Z,29.05
2017-06-22T23:37:35.092Z,29.13
2017-06-22T23:39:59.885Z,29.03
2017-06-22T23:42:24.581Z,29.05
2017-06-22T23:44:49.385Z,28.93
2017-06-22T23:47:00.013Z,29.03
2017-06-22T23:49:24.755Z,29.02
2017-06-22T23:51:41.044Z,29.03
2017-06-22T23:54:05.840Z,29.03
2017-06-22T23:56:30.642Z,28.7
2017-06-22T23:58:41.344Z,28.78
